sensor_id;sensor_type;location;lat;lon;timestamp;P1;durP1;ratioP1;P2;durP2;ratioP2
4517;SDS011;2271;49.464;11.070;2023-03-16T00:01:13;5.17;;;4.43;;
4517;SDS011;2271;49.464;11.070;2023-03-16T00:03:39;7.13;;;4.87;;
4517;SDS011;2271;49.464;11.070;2023-03-16T00:06:05;6.50;;;5.03;;
4517;SDS011;2271;49.464;11.070;2023-03-16T00:08:30;6.93;;;4.93;;
4517;SDS011;2271;49.464;11.070;2023-03-16T00:10:56;5.83;;;5.13;;
4517;SDS011;2271;49.464;11.070;2023-03-16T00:13:22;5.77;;;4.27;;
4517;SDS011;2271;49.464;11.070;2023-03-16T00:15:49;9.37;;;4.97;;
4517;SDS011;2271;49.464;11.070;2023-03-16T00:18:20;5.27;;;4.57;;
4517;SDS011;2271;49.464;11.070;2023-03-16T00:20:50;6.10;;;4.97;;
4517;SDS011;2271;49.464;11.070;2023-03-16T00:23:21;5.40;;;4.60;;
4517;SDS011;2271;49.464;11.070;2023-03-16T00:25:54;4.77;;;3.83;;
4517;SDS011;2271;49.464;11.070;2023-03-16T00:28:24;5.40;;;4.30;;
4517;SDS011;2271;49.464;11.070;2023-03-16T00:30:51;5.10;;;4.60;;
4517;SDS011;2271;49.464;11.070;2023-03-16T00:33:17;7.77;;;5.00;;
4517;SDS011;2271;49.464;11.070;2023-03-16T00:35:46;4.90;;;4.40;;
4517;SDS011;2271;49.464;11.070;2023-03-16T00:38:13;6.30;;;4.57;;
4517;SDS011;2271;49.464;11.070;2023-03-16T00:40:43;4.93;;;3.63;;
4517;SDS011;2271;49.464;11.070;2023-03-16T00:43:09;6.87;;;4.43;;
4517;SDS011;2271;49.464;11.070;2023-03-16T00:45:35;6.97;;;4.30;;
4517;SDS011;2271;49.464;11.070;2023-03-16T00:48:00;7.43;;;4.67;;
4517;SDS011;2271;49.464;11.070;2023-03-16T00:50:26;7.40;;;4.27;;
4517;SDS011;2271;49.464;11.070;2023-03-16T00:52:52;5.33;;;4.10;;
4517;SDS011;2271;49.464;11.070;2023-03-16T00:55:18;6.27;;;4.37;;
4517;SDS011;2271;49.464;11.070;2023-03-16T00:57:44;4.97;;;3.93;;
4517;SDS011;2271;49.464;11.070;2023-03-16T01:00:10;6.77;;;4.97;;
4517;SDS011;2271;49.464;11.070;2023-03-16T01:02:39;5.30;;;4.17;;
4517;SDS011;2271;49.464;11.070;2023-03-16T01:05:06;6.17;;;4.57;;
4517;SDS011;2271;49.464;11.070;2023-03-16T01:07:33;7.33;;;4.90;;
4517;SDS011;2271;49.464;11.070;2023-03-16T01:10:00;6.37;;;4.47;;
4517;SDS011;2271;49.464;11.070;2023-03-16T01:12:26;7.90;;;5.17;;
4517;SDS011;2271;49.464;11.070;2023-03-16T01:14:52;15.00;;;5.37;;
4517;SDS011;2271;49.464;11.070;2023-03-16T01:17:19;6.17;;;5.00;;
4517;SDS011;2271;49.464;11.070;2023-03-16T01:19:46;5.63;;;4.70;;
4517;SDS011;2271;49.464;11.070;2023-03-16T01:22:13;7.27;;;5.17;;
4517;SDS011;2271;49.464;11.070;2023-03-16T01:24:40;5.77;;;4.90;;
4517;SDS011;2271;49.464;11.070;2023-03-16T01:27:07;7.00;;;4.73;;
4517;SDS011;2271;49.464;11.070;2023-03-16T01:29:33;6.77;;;4.60;;
4517;SDS011;2271;49.464;11.070;2023-03-16T01:31:59;7.13;;;4.90;;
4517;SDS011;2271;49.464;11.070;2023-03-16T01:34:25;7.00;;;4.63;;
4517;SDS011;2271;49.464;11.070;2023-03-16T01:36:51;6.57;;;5.13;;
4517;SDS011;2271;49.464;11.070;2023-03-16T01:39:16;6.30;;;4.60;;
4517;SDS011;2271;49.464;11.070;2023-03-16T01:41:43;6.13;;;4.77;;
4517;SDS011;2271;49.464;11.070;2023-03-16T01:44:11;7.60;;;5.70;;
4517;SDS011;2271;49.464;11.070;2023-03-16T01:46:39;6.60;;;5.33;;
4517;SDS011;2271;49.464;11.070;2023-03-16T01:49:13;7.30;;;5.23;;
4517;SDS011;2271;49.464;11.070;2023-03-16T01:51:50;6.27;;;5.07;;
4517;SDS011;2271;49.464;11.070;2023-03-16T01:59:17;16.17;;;6.03;;
4517;SDS011;2271;49.464;11.070;2023-03-16T02:01:46;9.17;;;5.90;;
4517;SDS011;2271;49.464;11.070;2023-03-16T02:04:16;6.97;;;6.00;;
4517;SDS011;2271;49.464;11.070;2023-03-16T02:07:02;7.67;;;5.53;;
4517;SDS011;2271;49.464;11.070;2023-03-16T02:09:30;8.70;;;5.40;;
4517;SDS011;2271;49.464;11.070;2023-03-16T02:11:57;9.27;;;5.53;;
4517;SDS011;2271;49.464;11.070;2023-03-16T02:14:23;6.37;;;5.03;;
4517;SDS011;2271;49.464;11.070;2023-03-16T02:16:49;6.90;;;4.90;;
4517;SDS011;2271;49.464;11.070;2023-03-16T02:19:19;7.03;;;5.30;;
4517;SDS011;2271;49.464;11.070;2023-03-16T02:22:03;6.43;;;4.00;;
4517;SDS011;2271;49.464;11.070;2023-03-16T02:24:32;4.70;;;4.10;;
4517;SDS011;2271;49.464;11.070;2023-03-16T02:32:08;7.20;;;4.73;;
4517;SDS011;2271;49.464;11.070;2023-03-16T02:34:35;7.47;;;4.30;;
4517;SDS011;2271;49.464;11.070;2023-03-16T02:37:02;4.87;;;3.77;;
4517;SDS011;2271;49.464;11.070;2023-03-16T02:39:28;7.13;;;4.57;;
4517;SDS011;2271;49.464;11.070;2023-03-16T02:41:53;6.57;;;4.33;;
4517;SDS011;2271;49.464;11.070;2023-03-16T02:44:22;6.70;;;4.50;;
4517;SDS011;2271;49.464;11.070;2023-03-16T02:46:51;4.50;;;3.80;;
4517;SDS011;2271;49.464;11.070;2023-03-16T02:51:56;5.33;;;3.50;;
4517;SDS011;2271;49.464;11.070;2023-03-16T02:54:22;5.70;;;4.30;;
4517;SDS011;2271;49.464;11.070;2023-03-16T02:56:48;5.30;;;3.93;;
4517;SDS011;2271;49.464;11.070;2023-03-16T02:59:14;4.87;;;3.80;;
4517;SDS011;2271;49.464;11.070;2023-03-16T03:01:39;5.43;;;3.93;;
4517;SDS011;2271;49.464;11.070;2023-03-16T03:04:06;3.97;;;3.60;;
4517;SDS011;2271;49.464;11.070;2023-03-16T03:06:31;4.67;;;3.80;;
4517;SDS011;2271;49.464;11.070;2023-03-16T03:08:58;6.40;;;4.60;;
4517;SDS011;2271;49.464;11.070;2023-03-16T03:11:24;6.17;;;4.60;;
4517;SDS011;2271;49.464;11.070;2023-03-16T03:13:50;6.23;;;4.47;;
4517;SDS011;2271;49.464;11.070;2023-03-16T03:16:15;4.10;;;3.70;;
4517;SDS011;2271;49.464;11.070;2023-03-16T03:18:41;6.07;;;4.13;;
4517;SDS011;2271;49.464;11.070;2023-03-16T03:21:07;5.23;;;4.37;;
4517;SDS011;2271;49.464;11.070;2023-03-16T03:23:33;5.23;;;4.27;;
4517;SDS011;2271;49.464;11.070;2023-03-16T03:26:01;5.83;;;4.60;;
4517;SDS011;2271;49.464;11.070;2023-03-16T03:28:28;7.30;;;4.87;;
4517;SDS011;2271;49.464;11.070;2023-03-16T03:30:54;6.87;;;4.30;;
4517;SDS011;2271;49.464;11.070;2023-03-16T03:33:20;4.93;;;4.07;;
4517;SDS011;2271;49.464;11.070;2023-03-16T03:35:52;5.50;;;4.93;;
4517;SDS011;2271;49.464;11.070;2023-03-16T03:38:22;5.37;;;4.10;;
4517;SDS011;2271;49.464;11.070;2023-03-16T03:40:52;4.93;;;3.73;;
4517;SDS011;2271;49.464;11.070;2023-03-16T03:43:18;5.83;;;4.57;;
4517;SDS011;2271;49.464;11.070;2023-03-16T03:45:45;5.70;;;4.50;;
4517;SDS011;2271;49.464;11.070;2023-03-16T03:48:11;6.27;;;4.70;;
4517;SDS011;2271;49.464;11.070;2023-03-16T03:50:36;6.17;;;4.80;;
4517;SDS011;2271;49.464;11.070;2023-03-16T03:53:03;7.07;;;4.67;;
4517;SDS011;2271;49.464;11.070;2023-03-16T03:55:29;8.87;;;5.50;;
4517;SDS011;2271;49.464;11.070;2023-03-16T03:57:55;8.33;;;5.37;;
4517;SDS011;2271;49.464;11.070;2023-03-16T04:00:21;7.40;;;5.03;;
4517;SDS011;2271;49.464;11.070;2023-03-16T04:02:47;5.70;;;4.33;;
4517;SDS011;2271;49.464;11.070;2023-03-16T04:05:13;8.00;;;4.73;;
4517;SDS011;2271;49.464;11.070;2023-03-16T04:07:38;5.83;;;4.63;;
4517;SDS011;2271;49.464;11.070;2023-03-16T04:10:05;7.53;;;5.00;;
4517;SDS011;2271;49.464;11.070;2023-03-16T04:12:31;6.17;;;5.07;;
4517;SDS011;2271;49.464;11.070;2023-03-16T04:14:57;11.07;;;5.87;;
4517;SDS011;2271;49.464;11.070;2023-03-16T04:17:22;10.23;;;5.80;;
4517;SDS011;2271;49.464;11.070;2023-03-16T04:19:48;6.47;;;4.73;;
4517;SDS011;2271;49.464;11.070;2023-03-16T04:22:14;11.57;;;6.00;;
4517;SDS011;2271;49.464;11.070;2023-03-16T04:24:40;8.17;;;5.23;;
4517;SDS011;2271;49.464;11.070;2023-03-16T04:27:07;7.80;;;6.23;;
4517;SDS011;2271;49.464;11.070;2023-03-16T04:29:33;8.20;;;5.90;;
4517;SDS011;2271;49.464;11.070;2023-03-16T04:31:59;7.80;;;5.40;;
4517;SDS011;2271;49.464;11.070;2023-03-16T04:34:24;7.53;;;5.70;;
4517;SDS011;2271;49.464;11.070;2023-03-16T04:36:50;7.20;;;5.00;;
4517;SDS011;2271;49.464;11.070;2023-03-16T04:39:17;16.97;;;5.30;;
4517;SDS011;2271;49.464;11.070;2023-03-16T04:41:43;6.63;;;4.60;;
4517;SDS011;2271;49.464;11.070;2023-03-16T04:44:09;8.23;;;5.67;;
4517;SDS011;2271;49.464;11.070;2023-03-16T04:46:34;7.10;;;4.70;;
4517;SDS011;2271;49.464;11.070;2023-03-16T04:49:00;8.27;;;5.03;;
4517;SDS011;2271;49.464;11.070;2023-03-16T04:51:26;7.23;;;5.63;;
4517;SDS011;2271;49.464;11.070;2023-03-16T04:53:52;5.90;;;4.43;;
4517;SDS011;2271;49.464;11.070;2023-03-16T04:56:18;6.17;;;4.93;;
4517;SDS011;2271;49.464;11.070;2023-03-16T04:58:44;10.10;;;4.97;;
4517;SDS011;2271;49.464;11.070;2023-03-16T05:01:11;7.57;;;4.67;;
4517;SDS011;2271;49.464;11.070;2023-03-16T05:03:37;6.63;;;5.10;;
4517;SDS011;2271;49.464;11.070;2023-03-16T05:06:03;9.37;;;4.93;;
4517;SDS011;2271;49.464;11.070;2023-03-16T05:08:29;7.13;;;5.00;;
4517;SDS011;2271;49.464;11.070;2023-03-16T05:10:55;11.70;;;4.40;;
4517;SDS011;2271;49.464;11.070;2023-03-16T05:13:22;7.23;;;5.00;;
4517;SDS011;2271;49.464;11.070;2023-03-16T05:15:47;8.13;;;5.20;;
4517;SDS011;2271;49.464;11.070;2023-03-16T05:18:13;6.23;;;4.60;;
4517;SDS011;2271;49.464;11.070;2023-03-16T05:20:39;6.37;;;4.67;;
4517;SDS011;2271;49.464;11.070;2023-03-16T05:23:06;5.50;;;4.30;;
4517;SDS011;2271;49.464;11.070;2023-03-16T05:25:32;6.67;;;4.73;;
4517;SDS011;2271;49.464;11.070;2023-03-16T05:27:58;7.47;;;4.33;;
4517;SDS011;2271;49.464;11.070;2023-03-16T05:30:24;7.20;;;4.47;;
4517;SDS011;2271;49.464;11.070;2023-03-16T05:32:50;7.77;;;4.60;;
4517;SDS011;2271;49.464;11.070;2023-03-16T05:35:16;5.97;;;4.57;;
4517;SDS011;2271;49.464;11.070;2023-03-16T05:37:42;6.50;;;4.50;;
4517;SDS011;2271;49.464;11.070;2023-03-16T05:40:09;6.67;;;5.00;;
4517;SDS011;2271;49.464;11.070;2023-03-16T05:42:41;6.93;;;4.97;;
4517;SDS011;2271;49.464;11.070;2023-03-16T05:45:08;7.13;;;5.00;;
4517;SDS011;2271;49.464;11.070;2023-03-16T05:47:34;11.23;;;5.90;;
4517;SDS011;2271;49.464;11.070;2023-03-16T05:50:01;7.90;;;5.60;;
4517;SDS011;2271;49.464;11.070;2023-03-16T05:52:30;9.37;;;5.37;;
4517;SDS011;2271;49.464;11.070;2023-03-16T05:54:57;7.77;;;5.37;;
4517;SDS011;2271;49.464;11.070;2023-03-16T05:57:23;10.03;;;5.23;;
4517;SDS011;2271;49.464;11.070;2023-03-16T05:59:49;6.70;;;4.83;;
4517;SDS011;2271;49.464;11.070;2023-03-16T06:02:14;7.27;;;5.27;;
4517;SDS011;2271;49.464;11.070;2023-03-16T06:04:40;5.93;;;3.80;;
4517;SDS011;2271;49.464;11.070;2023-03-16T06:07:05;8.60;;;4.30;;
4517;SDS011;2271;49.464;11.070;2023-03-16T06:09:31;7.10;;;4.13;;
4517;SDS011;2271;49.464;11.070;2023-03-16T06:11:57;5.33;;;4.00;;
4517;SDS011;2271;49.464;11.070;2023-03-16T06:14:22;6.93;;;4.47;;
4517;SDS011;2271;49.464;11.070;2023-03-16T06:16:49;6.43;;;4.73;;
4517;SDS011;2271;49.464;11.070;2023-03-16T06:19:16;8.67;;;4.33;;
4517;SDS011;2271;49.464;11.070;2023-03-16T06:21:42;6.37;;;3.33;;
4517;SDS011;2271;49.464;11.070;2023-03-16T06:24:07;7.40;;;4.00;;
4517;SDS011;2271;49.464;11.070;2023-03-16T06:26:34;4.57;;;3.70;;
4517;SDS011;2271;49.464;11.070;2023-03-16T06:29:00;7.97;;;4.00;;
4517;SDS011;2271;49.464;11.070;2023-03-16T06:31:25;4.75;;;3.10;;
4517;SDS011;2271;49.464;11.070;2023-03-16T06:33:51;4.00;;;3.58;;
4517;SDS011;2271;49.464;11.070;2023-03-16T06:36:17;4.65;;;3.60;;
4517;SDS011;2271;49.464;11.070;2023-03-16T06:38:42;4.15;;;3.40;;
4517;SDS011;2271;49.464;11.070;2023-03-16T06:41:08;5.53;;;3.53;;
4517;SDS011;2271;49.464;11.070;2023-03-16T06:43:35;5.03;;;3.70;;
4517;SDS011;2271;49.464;11.070;2023-03-16T06:46:01;5.45;;;3.60;;
4517;SDS011;2271;49.464;11.070;2023-03-16T06:48:27;5.10;;;4.30;;
4517;SDS011;2271;49.464;11.070;2023-03-16T06:50:53;4.13;;;3.58;;
4517;SDS011;2271;49.464;11.070;2023-03-16T06:53:19;4.97;;;3.47;;
4517;SDS011;2271;49.464;11.070;2023-03-16T06:55:46;6.57;;;4.18;;
4517;SDS011;2271;49.464;11.070;2023-03-16T06:58:12;4.97;;;3.35;;
4517;SDS011;2271;49.464;11.070;2023-03-16T07:00:37;4.05;;;3.58;;
4517;SDS011;2271;49.464;11.070;2023-03-16T07:03:03;4.00;;;3.60;;
4517;SDS011;2271;49.464;11.070;2023-03-16T07:05:29;6.65;;;3.20;;
4517;SDS011;2271;49.464;11.070;2023-03-16T07:07:54;3.83;;;3.30;;
4517;SDS011;2271;49.464;11.070;2023-03-16T07:10:20;4.97;;;3.23;;
4517;SDS011;2271;49.464;11.070;2023-03-16T07:12:46;5.83;;;3.50;;
4517;SDS011;2271;49.464;11.070;2023-03-16T07:15:11;6.40;;;3.37;;
4517;SDS011;2271;49.464;11.070;2023-03-16T07:17:37;7.60;;;3.60;;
4517;SDS011;2271;49.464;11.070;2023-03-16T07:20:04;4.40;;;3.37;;
4517;SDS011;2271;49.464;11.070;2023-03-16T07:22:34;4.50;;;3.70;;
4517;SDS011;2271;49.464;11.070;2023-03-16T07:24:59;5.50;;;3.17;;
4517;SDS011;2271;49.464;11.070;2023-03-16T07:27:25;5.07;;;3.50;;
4517;SDS011;2271;49.464;11.070;2023-03-16T07:29:52;4.83;;;3.57;;
4517;SDS011;2271;49.464;11.070;2023-03-16T07:32:18;8.50;;;3.50;;
4517;SDS011;2271;49.464;11.070;2023-03-16T07:34:44;5.27;;;3.60;;
4517;SDS011;2271;49.464;11.070;2023-03-16T07:37:10;4.63;;;3.33;;
4517;SDS011;2271;49.464;11.070;2023-03-16T07:39:36;4.07;;;3.50;;
4517;SDS011;2271;49.464;11.070;2023-03-16T07:42:01;2.93;;;2.63;;
4517;SDS011;2271;49.464;11.070;2023-03-16T07:44:28;5.80;;;2.90;;
4517;SDS011;2271;49.464;11.070;2023-03-16T07:46:53;3.67;;;3.03;;
4517;SDS011;2271;49.464;11.070;2023-03-16T07:49:19;3.37;;;2.70;;
4517;SDS011;2271;49.464;11.070;2023-03-16T07:51:45;4.77;;;2.60;;
4517;SDS011;2271;49.464;11.070;2023-03-16T07:54:10;5.60;;;3.30;;
4517;SDS011;2271;49.464;11.070;2023-03-16T07:56:37;4.83;;;2.87;;
4517;SDS011;2271;49.464;11.070;2023-03-16T07:59:03;2.87;;;2.57;;
4517;SDS011;2271;49.464;11.070;2023-03-16T08:01:29;3.03;;;2.63;;
4517;SDS011;2271;49.464;11.070;2023-03-16T08:03:55;2.27;;;2.07;;
4517;SDS011;2271;49.464;11.070;2023-03-16T08:06:20;3.60;;;3.23;;
4517;SDS011;2271;49.464;11.070;2023-03-16T08:08:46;4.13;;;2.93;;
4517;SDS011;2271;49.464;11.070;2023-03-16T08:11:12;4.80;;;2.77;;
4517;SDS011;2271;49.464;11.070;2023-03-16T08:13:38;7.77;;;2.50;;
4517;SDS011;2271;49.464;11.070;2023-03-16T08:16:07;4.80;;;2.97;;
4517;SDS011;2271;49.464;11.070;2023-03-16T08:18:34;2.70;;;2.33;;
4517;SDS011;2271;49.464;11.070;2023-03-16T08:21:00;3.10;;;2.77;;
4517;SDS011;2271;49.464;11.070;2023-03-16T08:23:26;6.77;;;2.83;;
4517;SDS011;2271;49.464;11.070;2023-03-16T08:25:54;4.73;;;3.10;;
4517;SDS011;2271;49.464;11.070;2023-03-16T08:28:21;5.03;;;3.00;;
4517;SDS011;2271;49.464;11.070;2023-03-16T08:30:50;3.13;;;2.47;;
4517;SDS011;2271;49.464;11.070;2023-03-16T08:33:17;3.70;;;2.87;;
4517;SDS011;2271;49.464;11.070;2023-03-16T08:35:44;3.93;;;2.20;;
4517;SDS011;2271;49.464;11.070;2023-03-16T08:38:11;1.87;;;1.77;;
4517;SDS011;2271;49.464;11.070;2023-03-16T08:40:38;4.63;;;2.83;;
4517;SDS011;2271;49.464;11.070;2023-03-16T08:43:06;4.50;;;2.90;;
4517;SDS011;2271;49.464;11.070;2023-03-16T08:45:32;3.37;;;2.13;;
4517;SDS011;2271;49.464;11.070;2023-03-16T08:47:58;4.70;;;2.43;;
4517;SDS011;2271;49.464;11.070;2023-03-16T08:50:24;2.67;;;2.10;;
4517;SDS011;2271;49.464;11.070;2023-03-16T08:52:51;2.60;;;1.57;;
4517;SDS011;2271;49.464;11.070;2023-03-16T08:55:17;2.60;;;2.03;;
4517;SDS011;2271;49.464;11.070;2023-03-16T08:57:43;4.23;;;2.57;;
4517;SDS011;2271;49.464;11.070;2023-03-16T09:00:10;4.00;;;2.77;;
4517;SDS011;2271;49.464;11.070;2023-03-16T09:02:38;2.97;;;2.03;;
4517;SDS011;2271;49.464;11.070;2023-03-16T09:05:09;6.57;;;2.63;;
4517;SDS011;2271;49.464;11.070;2023-03-16T09:07:36;4.93;;;2.33;;
4517;SDS011;2271;49.464;11.070;2023-03-16T09:10:03;5.70;;;2.53;;
4517;SDS011;2271;49.464;11.070;2023-03-16T09:12:31;2.20;;;1.73;;
4517;SDS011;2271;49.464;11.070;2023-03-16T09:14:59;3.43;;;2.30;;
4517;SDS011;2271;49.464;11.070;2023-03-16T09:17:25;5.13;;;2.10;;
4517;SDS011;2271;49.464;11.070;2023-03-16T09:19:51;6.33;;;2.70;;
4517;SDS011;2271;49.464;11.070;2023-03-16T09:22:17;3.07;;;2.10;;
4517;SDS011;2271;49.464;11.070;2023-03-16T09:24:43;8.43;;;2.30;;
4517;SDS011;2271;49.464;11.070;2023-03-16T09:27:09;13.57;;;2.50;;
4517;SDS011;2271;49.464;11.070;2023-03-16T09:29:34;5.70;;;2.50;;
4517;SDS011;2271;49.464;11.070;2023-03-16T09:32:00;10.97;;;2.83;;
4517;SDS011;2271;49.464;11.070;2023-03-16T09:34:27;3.40;;;2.07;;
4517;SDS011;2271;49.464;11.070;2023-03-16T09:36:53;4.80;;;2.03;;
4517;SDS011;2271;49.464;11.070;2023-03-16T09:39:19;7.53;;;2.27;;
4517;SDS011;2271;49.464;11.070;2023-03-16T09:47:09;3.20;;;1.70;;
4517;SDS011;2271;49.464;11.070;2023-03-16T09:49:45;6.83;;;2.40;;
4517;SDS011;2271;49.464;11.070;2023-03-16T09:57:56;2.43;;;1.50;;
4517;SDS011;2271;49.464;11.070;2023-03-16T10:00:24;3.73;;;2.30;;
4517;SDS011;2271;49.464;11.070;2023-03-16T10:05:36;3.37;;;1.63;;
4517;SDS011;2271;49.464;11.070;2023-03-16T10:08:06;3.27;;;1.87;;
4517;SDS011;2271;49.464;11.070;2023-03-16T10:15:51;3.00;;;1.97;;
4517;SDS011;2271;49.464;11.070;2023-03-16T10:18:22;5.50;;;1.90;;
4517;SDS011;2271;49.464;11.070;2023-03-16T10:20:52;2.23;;;1.90;;
4517;SDS011;2271;49.464;11.070;2023-03-16T10:23:20;1.20;;;1.10;;
4517;SDS011;2271;49.464;11.070;2023-03-16T10:25:49;1.83;;;1.67;;
4517;SDS011;2271;49.464;11.070;2023-03-16T10:28:20;3.87;;;1.60;;
4517;SDS011;2271;49.464;11.070;2023-03-16T10:30:54;3.87;;;2.03;;
4517;SDS011;2271;49.464;11.070;2023-03-16T10:33:26;3.17;;;1.17;;
4517;SDS011;2271;49.464;11.070;2023-03-16T10:41:05;2.50;;;1.60;;
4517;SDS011;2271;49.464;11.070;2023-03-16T10:43:48;2.13;;;1.33;;
4517;SDS011;2271;49.464;11.070;2023-03-16T10:46:15;3.20;;;1.50;;
4517;SDS011;2271;49.464;11.070;2023-03-16T10:48:41;6.50;;;1.60;;
4517;SDS011;2271;49.464;11.070;2023-03-16T10:51:15;4.07;;;1.53;;
4517;SDS011;2271;49.464;11.070;2023-03-16T10:53:44;2.00;;;1.40;;
4517;SDS011;2271;49.464;11.070;2023-03-16T10:56:11;3.70;;;1.20;;
4517;SDS011;2271;49.464;11.070;2023-03-16T10:58:49;4.80;;;1.57;;
4517;SDS011;2271;49.464;11.070;2023-03-16T11:01:24;3.97;;;1.47;;
4517;SDS011;2271;49.464;11.070;2023-03-16T11:03:53;1.53;;;1.30;;
4517;SDS011;2271;49.464;11.070;2023-03-16T11:08:46;3.13;;;1.67;;
4517;SDS011;2271;49.464;11.070;2023-03-16T11:11:13;2.10;;;1.70;;
4517;SDS011;2271;49.464;11.070;2023-03-16T11:13:43;2.00;;;1.40;;
4517;SDS011;2271;49.464;11.070;2023-03-16T11:16:30;2.60;;;1.67;;
4517;SDS011;2271;49.464;11.070;2023-03-16T11:19:17;7.93;;;2.30;;
4517;SDS011;2271;49.464;11.070;2023-03-16T11:21:53;3.50;;;1.57;;
4517;SDS011;2271;49.464;11.070;2023-03-16T11:24:46;3.57;;;1.70;;
4517;SDS011;2271;49.464;11.070;2023-03-16T11:27:41;6.30;;;2.40;;
4517;SDS011;2271;49.464;11.070;2023-03-16T11:30:27;2.30;;;2.00;;
4517;SDS011;2271;49.464;11.070;2023-03-16T11:33:06;2.07;;;1.47;;
4517;SDS011;2271;49.464;11.070;2023-03-16T11:35:45;4.13;;;1.80;;
4517;SDS011;2271;49.464;11.070;2023-03-16T11:38:27;6.60;;;2.43;;
4517;SDS011;2271;49.464;11.070;2023-03-16T11:41:11;2.27;;;1.50;;
4517;SDS011;2271;49.464;11.070;2023-03-16T11:43:47;6.50;;;2.93;;
4517;SDS011;2271;49.464;11.070;2023-03-16T11:46:21;6.27;;;2.37;;
4517;SDS011;2271;49.464;11.070;2023-03-16T12:11:03;5.03;;;2.30;;
4517;SDS011;2271;49.464;11.070;2023-03-16T12:13:40;2.40;;;1.73;;
4517;SDS011;2271;49.464;11.070;2023-03-16T12:21:24;1.93;;;1.60;;
4517;SDS011;2271;49.464;11.070;2023-03-16T12:23:57;5.97;;;2.00;;
4517;SDS011;2271;49.464;11.070;2023-03-16T12:26:28;4.73;;;2.40;;
4517;SDS011;2271;49.464;11.070;2023-03-16T12:28:57;4.03;;;1.93;;
4517;SDS011;2271;49.464;11.070;2023-03-16T12:31:45;1.73;;;1.63;;
4517;SDS011;2271;49.464;11.070;2023-03-16T12:37:08;5.43;;;2.20;;
4517;SDS011;2271;49.464;11.070;2023-03-16T12:40:21;3.20;;;1.90;;
4517;SDS011;2271;49.464;11.070;2023-03-16T12:50:49;2.40;;;2.00;;
4517;SDS011;2271;49.464;11.070;2023-03-16T12:56:12;3.00;;;1.97;;
4517;SDS011;2271;49.464;11.070;2023-03-16T12:59:00;5.83;;;2.43;;
4517;SDS011;2271;49.464;11.070;2023-03-16T13:01:28;4.60;;;3.67;;
4517;SDS011;2271;49.464;11.070;2023-03-16T13:04:11;5.43;;;2.50;;
4517;SDS011;2271;49.464;11.070;2023-03-16T13:06:46;5.03;;;2.83;;
4517;SDS011;2271;49.464;11.070;2023-03-16T13:09:25;7.10;;;3.53;;
4517;SDS011;2271;49.464;11.070;2023-03-16T13:11:53;3.47;;;1.90;;
4517;SDS011;2271;49.464;11.070;2023-03-16T13:14:41;1.90;;;1.73;;
4517;SDS011;2271;49.464;11.070;2023-03-16T13:19:40;3.47;;;2.63;;
4517;SDS011;2271;49.464;11.070;2023-03-16T13:24:53;5.33;;;3.70;;
4517;SDS011;2271;49.464;11.070;2023-03-16T13:27:28;5.80;;;2.37;;
4517;SDS011;2271;49.464;11.070;2023-03-16T13:29:59;4.17;;;3.77;;
4517;SDS011;2271;49.464;11.070;2023-03-16T13:32:29;4.17;;;2.03;;
4517;SDS011;2271;49.464;11.070;2023-03-16T13:34:57;2.10;;;1.90;;
4517;SDS011;2271;49.464;11.070;2023-03-16T13:37:25;5.03;;;2.33;;
4517;SDS011;2271;49.464;11.070;2023-03-16T13:40:02;5.23;;;2.67;;
4517;SDS011;2271;49.464;11.070;2023-03-16T13:42:29;2.60;;;2.07;;
4517;SDS011;2271;49.464;11.070;2023-03-16T13:44:57;2.17;;;1.80;;
4517;SDS011;2271;49.464;11.070;2023-03-16T13:47:27;4.67;;;2.00;;
4517;SDS011;2271;49.464;11.070;2023-03-16T13:49:57;2.03;;;1.70;;
4517;SDS011;2271;49.464;11.070;2023-03-16T13:54:53;2.10;;;1.90;;
4517;SDS011;2271;49.464;11.070;2023-03-16T13:57:21;5.03;;;2.23;;
4517;SDS011;2271;49.464;11.070;2023-03-16T13:59:49;2.00;;;1.80;;
4517;SDS011;2271;49.464;11.070;2023-03-16T14:02:22;2.23;;;2.03;;
4517;SDS011;2271;49.464;11.070;2023-03-16T14:04:49;5.10;;;1.50;;
4517;SDS011;2271;49.464;11.070;2023-03-16T14:07:16;3.40;;;2.07;;
4517;SDS011;2271;49.464;11.070;2023-03-16T14:09:44;2.13;;;1.93;;
4517;SDS011;2271;49.464;11.070;2023-03-16T14:12:14;3.97;;;2.10;;
4517;SDS011;2271;49.464;11.070;2023-03-16T14:14:44;3.40;;;2.23;;
4517;SDS011;2271;49.464;11.070;2023-03-16T14:17:17;6.40;;;1.73;;
4517;SDS011;2271;49.464;11.070;2023-03-16T14:19:54;1.97;;;1.70;;
4517;SDS011;2271;49.464;11.070;2023-03-16T14:22:36;3.63;;;2.23;;
4517;SDS011;2271;49.464;11.070;2023-03-16T14:25:02;2.17;;;1.70;;
4517;SDS011;2271;49.464;11.070;2023-03-16T14:30:17;3.97;;;1.80;;
4517;SDS011;2271;49.464;11.070;2023-03-16T14:35:21;2.57;;;2.00;;
4517;SDS011;2271;49.464;11.070;2023-03-16T14:37:51;2.70;;;1.90;;
4517;SDS011;2271;49.464;11.070;2023-03-16T14:40:29;13.20;;;2.77;;
4517;SDS011;2271;49.464;11.070;2023-03-16T14:42:56;1.93;;;1.73;;
4517;SDS011;2271;49.464;11.070;2023-03-16T14:45:28;2.30;;;1.80;;
4517;SDS011;2271;49.464;11.070;2023-03-16T14:48:00;3.73;;;1.80;;
4517;SDS011;2271;49.464;11.070;2023-03-16T14:50:30;3.57;;;2.33;;
4517;SDS011;2271;49.464;11.070;2023-03-16T14:52:57;7.10;;;2.10;;
4517;SDS011;2271;49.464;11.070;2023-03-16T14:55:23;2.10;;;1.90;;
4517;SDS011;2271;49.464;11.070;2023-03-16T14:57:49;2.23;;;2.10;;
4517;SDS011;2271;49.464;11.070;2023-03-16T15:00:16;3.90;;;2.20;;
4517;SDS011;2271;49.464;11.070;2023-03-16T15:02:46;5.27;;;2.80;;
4517;SDS011;2271;49.464;11.070;2023-03-16T15:08:23;2.23;;;2.03;;
4517;SDS011;2271;49.464;11.070;2023-03-16T15:10:53;1.60;;;1.50;;
4517;SDS011;2271;49.464;11.070;2023-03-16T15:13:21;5.30;;;2.00;;
4517;SDS011;2271;49.464;11.070;2023-03-16T15:16:16;1.67;;;1.50;;
4517;SDS011;2271;49.464;11.070;2023-03-16T15:18:42;2.63;;;2.07;;
4517;SDS011;2271;49.464;11.070;2023-03-16T15:21:08;3.67;;;2.00;;
4517;SDS011;2271;49.464;11.070;2023-03-16T15:24:00;1.87;;;1.77;;
4517;SDS011;2271;49.464;11.070;2023-03-16T15:26:26;4.13;;;2.33;;
4517;SDS011;2271;49.464;11.070;2023-03-16T15:28:54;2.83;;;2.30;;
4517;SDS011;2271;49.464;11.070;2023-03-16T15:31:20;3.10;;;2.30;;
4517;SDS011;2271;49.464;11.070;2023-03-16T15:33:47;4.30;;;2.30;;
4517;SDS011;2271;49.464;11.070;2023-03-16T15:36:17;2.27;;;2.07;;
4517;SDS011;2271;49.464;11.070;2023-03-16T15:38:45;3.73;;;2.07;;
4517;SDS011;2271;49.464;11.070;2023-03-16T15:41:12;5.33;;;2.50;;
4517;SDS011;2271;49.464;11.070;2023-03-16T15:43:38;3.77;;;2.47;;
4517;SDS011;2271;49.464;11.070;2023-03-16T15:46:04;5.50;;;2.43;;
4517;SDS011;2271;49.464;11.070;2023-03-16T15:48:31;2.53;;;2.20;;
4517;SDS011;2271;49.464;11.070;2023-03-16T15:51:05;3.20;;;2.50;;
4517;SDS011;2271;49.464;11.070;2023-03-16T15:56:10;3.13;;;2.50;;
4517;SDS011;2271;49.464;11.070;2023-03-16T15:58:39;2.97;;;2.67;;
4517;SDS011;2271;49.464;11.070;2023-03-16T16:01:07;6.57;;;3.70;;
4517;SDS011;2271;49.464;11.070;2023-03-16T16:03:33;10.40;;;3.60;;
4517;SDS011;2271;49.464;11.070;2023-03-16T16:05:59;8.53;;;2.93;;
4517;SDS011;2271;49.464;11.070;2023-03-16T16:08:25;3.93;;;3.20;;
4517;SDS011;2271;49.464;11.070;2023-03-16T16:10:51;3.97;;;3.07;;
4517;SDS011;2271;49.464;11.070;2023-03-16T16:13:25;3.80;;;2.83;;
4517;SDS011;2271;49.464;11.070;2023-03-16T16:15:52;2.80;;;2.60;;
4517;SDS011;2271;49.464;11.070;2023-03-16T16:21:01;4.67;;;3.27;;
4517;SDS011;2271;49.464;11.070;2023-03-16T16:23:29;5.17;;;3.43;;
4517;SDS011;2271;49.464;11.070;2023-03-16T16:26:42;4.67;;;3.63;;
4517;SDS011;2271;49.464;11.070;2023-03-16T16:28:48;3.43;;;2.60;;
4517;SDS011;2271;49.464;11.070;2023-03-16T16:31:15;5.00;;;3.00;;
4517;SDS011;2271;49.464;11.070;2023-03-16T16:33:41;3.80;;;3.33;;
4517;SDS011;2271;49.464;11.070;2023-03-16T16:36:12;6.53;;;4.30;;
4517;SDS011;2271;49.464;11.070;2023-03-16T16:38:41;3.20;;;2.87;;
4517;SDS011;2271;49.464;11.070;2023-03-16T16:41:07;3.03;;;2.73;;
4517;SDS011;2271;49.464;11.070;2023-03-16T16:43:35;5.20;;;3.37;;
4517;SDS011;2271;49.464;11.070;2023-03-16T16:46:14;4.00;;;3.23;;
4517;SDS011;2271;49.464;11.070;2023-03-16T16:48:43;4.47;;;2.90;;
4517;SDS011;2271;49.464;11.070;2023-03-16T16:51:31;4.90;;;3.80;;